FMEP Airport Information

Runway Information
Runway 15 Length 4965 ft width 98 ft
Elevation 59 ft Threshold 0 ft Heading 129
Runway 33 Length 4965 ft Width 98 ft
Elevation 41 ft Threshold 0 ft Heading 309
Airport Frequencies
Type INFO Name PIERREFOND Frequency 122.4 MHZ
Airport Navaids
Type VOR-DME Name St Pierre Pierrefonds Frequency 115900 KHZ
Type NDB Name Pierrefonds/Etang Frequency 352 KHZ
Airport Weather Information & NOTAM
ADDS - METARS form results

(1338 UTC 20 August 2019)
Data provider http://aviationweather.gov/metar/data/
 
METAR text: FMEP 201330Z AUTO 12023KT 9999 BKN066 21/18 Q1020 BECMG 12025G35KT
Conditions at: FMEP (ST. PIERRE/FONDS, FR) observed 1330 UTC 20 August 2019
Temperature: 21.0°C (70°F)
Dewpoint: 18.0°C (64°F) [RH = 83%]
Pressure (altimeter): 30.12 inches Hg (1020.0 mb)
Winds: from the ESE (120 degrees) at 26 MPH (23 knots; 11.8 m/s)
Visibility: 6 or more miles (10+ km)
Ceiling: 6600 feet AGL
Clouds: broken clouds at 6600 feet AGL
Weather: no significant weather observed at this time

METAR text: FMEP 201300Z AUTO 12023G37KT 9999 BKN068 22/18 Q1020 NOSIG
Conditions at: FMEP (ST. PIERRE/FONDS, FR) observed 1300 UTC 20 August 2019
Temperature: 22.0°C (72°F)
Dewpoint: 18.0°C (64°F) [RH = 78%]
Pressure (altimeter): 30.12 inches Hg (1020.0 mb)
Winds: from the ESE (120 degrees) at 26 MPH (23 knots; 11.8 m/s)
gusting to 43 MPH (37 knots; 19.0 m/s)
Visibility: 6 or more miles (10+ km)
Ceiling: 6800 feet AGL
Clouds: broken clouds at 6800 feet AGL
Weather: no significant weather observed at this time

Forecast for: FMEP (ST. PIERRE/FONDS, FR)
Text: TAF FMEP 201100Z 2012/2021 12025G35KT 9999 FEW018 SCT056
Forecast period: 1200 to 2100 UTC 20 August 2019
Forecast type: FROM: standard forecast or significant change
Winds: from the ESE (120 degrees) at 29 MPH (25 knots; 12.9 m/s)
gusting to 40 MPH (35 knots; 18.0 m/s)
Visibility: 6 or more miles 10+ km)
Ceiling: at least 12,000 feet AGL
Clouds: few clouds at 1800 feet AGL
scattered clouds at 5600 feet AGL
Weather: no significant weather forecast for this period